Barlaston, United Kingdom
Current Conditions -  °F | °C
As of 6:50 PM on Sunday 21 Dec 2014 (Local Time) from EGOS Reporting Station
Few Clouds Few Clouds  
Wind Chill: 54°   Ceiling: Unl
Heat Index: 54°   Visibility: 6mi
Dew Point: 48°   Wind: 28mph
Humidity: 82%   Direction: 250°WSW
Pressure: 30.03"   Gusts: NA
Location:  52.94°N, 2.17°W
Report Text: EGOS 211850Z AUTO 25024KT 9999 FEW120/// 12/09 Q1017
Loading
Personal Weather Stations






























Interactive Weather Map New forecast layout! Learn more

10-Day Weather Forecast

Advertisements
Track Severe Weather on mobile